Etusivu
METAR-TAF:

METAR-TAF

Lentoasemat :

Resolute, Nunavut, Kanada

Resolute Bayn lentoasema

Leveyspiiri: 74-43N, Pituuspiiri: 094-59W, korkeus merenpinnasta: 67 m

Tämänhetkinen sää

Tämä raportti tehtiin 1 tunti ja 7 minuuttia sitten, kello 13.00 UTC
Tuuli 10 kn luoteesta
Lämpötila -36°C
Kosteus 60%
Ilmanpaine 1009 hPa
Näkyvyys: 24.1 km
Hajanaisia pilviä 14000 ft:n korkeudessa
jääkiteitä, sumua näköpiirissä

METAR: CYRB 231300Z 32010KT 15SM IC VCFG SCT140 M36/M41 A2981 RMK AC3 SLP111

Aika: 09:07 (14:07 UTC)

Sääennuste

Tämä raportti tehtiin 2 tuntia ja 29 minuuttia sitten, kello 11.38 UTC
Ennuste voimassa 23. päivästä klo 12 UTC - 24. päivään klo 12 UTC
Tuuli 10 kn pohjoisen/luoteesta
Näkyvyys: 10 km
Muutamia pilviä 3000 ft:n korkeudessa
jääkiteitä

TAF: CYRB 231138Z 2312/2412 34010KT P6SM IC FEW030 RMK NXT FCST BY 231800Z

Säähavainnot ja -ennusteet yli 4000 lentoasemalta (METAR- ja TAF-raportit).

Käytössä olevat sääasemat on merkitty karttaan keltaisilla ja punaisilla pisteillä.

Aseta hiiri pisteen päälle nähdäksesi sääaseman nimen.

Klikkaa sitten nähdäksesi säähavainnot ja -ennusteet.

Kartan vaihtaminen: klikkaa mustalla rastilla varustettuja vihreitä pisteitä, niin voit zoomata sisään; viivalla varustettua vihreää pistettä, niin voit zoomata ulos tai vihreitä nuolia, niin pääset viereisille kartoille.


METAR-TAF: